Jose Bonifacio, Brazil
Current Conditions -  °F | °C
As of 1:00 AM on Sunday 21 Dec 2014 (Local Time) from SBBU Reporting Station
Clear Clear  
Wind Chill: 75°   Ceiling: Unl
Heat Index: 75°   Visibility: 6mi
Dew Point: 73°   Wind: 9mph
Humidity: 94%   Direction: 360°N
Pressure: 29.88"   Gusts: NA
Location:  21.05°S, 49.69°W
Report Text: SBBU 210300Z 36008KT CAVOK 24/23 Q1012
Loading
Personal Weather Stations






























Interactive Weather Map New forecast layout! Learn more

10-Day Weather Forecast

Advertisements
Track Severe Weather on mobile